createdAt,value
2018-07-31T00:02:03.343Z,99.90
2018-07-31T00:04:30.740Z,99.90
2018-07-31T00:11:52.426Z,99.90
2018-07-31T00:14:19.781Z,99.90
2018-07-31T00:16:47.142Z,99.90
2018-07-31T00:19:14.484Z,99.90
2018-07-31T00:21:41.926Z,99.90
2018-07-31T00:26:36.450Z,99.90
2018-07-31T00:29:03.819Z,99.90
2018-07-31T00:31:31.165Z,99.90
2018-07-31T00:33:58.524Z,99.90
2018-07-31T00:36:26.001Z,99.90
2018-07-31T00:38:53.355Z,99.90
2018-07-31T00:41:20.682Z,99.90
2018-07-31T00:43:48.054Z,99.90
2018-07-31T00:46:15.396Z,99.90
2018-07-31T00:48:42.780Z,99.90
2018-07-31T00:51:10.108Z,99.90
2018-07-31T00:53:37.499Z,99.90
2018-07-31T00:56:04.804Z,99.90
2018-07-31T00:58:32.181Z,99.90
2018-07-31T01:00:59.654Z,99.90
2018-07-31T01:03:27.114Z,99.90
2018-07-31T01:05:54.679Z,99.90
2018-07-31T01:08:22.045Z,99.90
2018-07-31T01:10:49.364Z,99.90
2018-07-31T01:13:16.745Z,99.90
2018-07-31T01:15:44.087Z,99.90
2018-07-31T01:18:11.465Z,99.90
2018-07-31T01:20:38.812Z,99.90
2018-07-31T01:23:06.138Z,99.90
2018-07-31T01:28:00.679Z,99.90
2018-07-31T01:30:28.048Z,99.90
2018-07-31T01:32:55.509Z,99.90
2018-07-31T01:35:22.826Z,99.90
2018-07-31T01:40:17.368Z,99.90
2018-07-31T01:42:44.691Z,99.90
2018-07-31T01:47:39.328Z,99.90
2018-07-31T01:50:06.673Z,99.90
2018-07-31T01:52:34.069Z,99.90
2018-07-31T01:55:01.366Z,99.90
2018-07-31T01:59:58.455Z,99.90
2018-07-31T02:02:25.828Z,99.90
2018-07-31T02:04:54.598Z,99.90
2018-07-31T02:07:22.063Z,99.90
2018-07-31T02:09:49.643Z,99.90
2018-07-31T02:12:17.181Z,99.90
2018-07-31T02:14:44.547Z,99.90
2018-07-31T02:17:12.005Z,99.90
2018-07-31T02:19:41.530Z,99.90
2018-07-31T02:22:10.975Z,99.90
2018-07-31T02:27:12.850Z,99.90
2018-07-31T02:29:46.535Z,99.90
2018-07-31T02:32:14.300Z,99.90
2018-07-31T02:34:41.621Z,99.90
2018-07-31T02:37:09.104Z,99.90
2018-07-31T02:39:36.525Z,99.90
2018-07-31T02:42:04.143Z,99.90
2018-07-31T02:44:31.450Z,99.90
2018-07-31T02:46:58.985Z,99.90
2018-07-31T02:49:26.261Z,99.90
2018-07-31T02:51:53.628Z,99.90
2018-07-31T02:54:21.002Z,99.90
2018-07-31T02:56:48.315Z,99.90
2018-07-31T02:59:15.812Z,99.90
2018-07-31T03:01:43.327Z,99.90
2018-07-31T03:06:37.769Z,99.90
2018-07-31T03:09:06.345Z,99.90
2018-07-31T03:11:34.030Z,99.90
2018-07-31T03:14:01.352Z,99.90
2018-07-31T03:16:29.091Z,99.90
2018-07-31T03:19:44.275Z,99.90
2018-07-31T03:22:12.520Z,99.90
2018-07-31T03:24:40.667Z,99.90
2018-07-31T03:27:08.975Z,99.90
2018-07-31T03:29:36.983Z,99.90
2018-07-31T03:32:05.465Z,99.90
2018-07-31T03:34:33.675Z,99.90
2018-07-31T03:37:01.853Z,99.90
2018-07-31T03:39:29.944Z,99.90
2018-07-31T03:41:58.120Z,99.90
2018-07-31T03:44:26.276Z,99.90
2018-07-31T03:46:54.332Z,99.90
2018-07-31T03:49:22.555Z,99.90
2018-07-31T03:51:50.713Z,99.90
2018-07-31T03:54:18.890Z,99.90
2018-07-31T03:56:46.948Z,99.90
2018-07-31T03:59:15.115Z,99.90
2018-07-31T04:01:43.230Z,99.90
2018-07-31T04:04:11.377Z,99.90
2018-07-31T04:06:46.835Z,99.90
2018-07-31T04:11:43.120Z,99.90
2018-07-31T04:14:11.160Z,99.90
2018-07-31T04:16:39.798Z,99.90
2018-07-31T04:19:07.984Z,99.90
2018-07-31T04:21:36.011Z,99.90
2018-07-31T04:24:04.192Z,99.90
2018-07-31T04:26:32.369Z,99.90
2018-07-31T04:29:00.759Z,99.90
2018-07-31T04:31:28.832Z,99.90
2018-07-31T04:33:57.006Z,99.90
2018-07-31T04:36:25.259Z,99.90
2018-07-31T04:38:53.349Z,99.90
2018-07-31T04:41:21.584Z,99.90
2018-07-31T04:43:49.606Z,99.90
2018-07-31T04:46:17.677Z,99.90
2018-07-31T04:48:45.724Z,99.90
2018-07-31T04:51:14.040Z,99.90
2018-07-31T04:53:42.074Z,99.90
2018-07-31T04:56:10.388Z,99.90
2018-07-31T04:58:38.556Z,99.90
2018-07-31T05:01:06.719Z,99.90
2018-07-31T05:03:34.903Z,99.90
2018-07-31T05:06:03.175Z,99.90
2018-07-31T05:08:31.224Z,99.90
2018-07-31T05:10:59.509Z,99.90
2018-07-31T05:13:27.403Z,99.90
2018-07-31T05:15:55.555Z,99.90
2018-07-31T05:18:23.756Z,99.90
2018-07-31T05:23:20.403Z,99.90
2018-07-31T05:25:48.553Z,99.90
2018-07-31T05:30:44.499Z,99.90
2018-07-31T05:33:12.643Z,99.90
2018-07-31T05:35:40.881Z,99.90
2018-07-31T05:38:08.925Z,99.90
2018-07-31T05:40:37.010Z,99.90
2018-07-31T05:43:05.276Z,99.90
2018-07-31T05:45:33.384Z,99.90
2018-07-31T05:48:01.432Z,99.90
2018-07-31T05:50:29.615Z,99.90
2018-07-31T05:52:57.778Z,99.90
2018-07-31T05:55:25.979Z,99.90
2018-07-31T05:57:54.132Z,99.90
2018-07-31T06:00:22.320Z,99.90
2018-07-31T06:02:50.433Z,99.90
2018-07-31T06:05:18.547Z,99.90
2018-07-31T06:07:46.757Z,99.90
2018-07-31T06:10:14.909Z,99.90
2018-07-31T06:12:43.013Z,99.90
2018-07-31T06:15:11.263Z,99.90
2018-07-31T06:17:39.445Z,99.90
2018-07-31T06:20:13.862Z,99.90
2018-07-31T06:22:42.040Z,99.90
2018-07-31T06:25:10.461Z,99.90
2018-07-31T06:30:09.176Z,99.90
2018-07-31T06:32:37.296Z,99.90
2018-07-31T06:35:05.797Z,99.90
2018-07-31T06:37:33.858Z,99.90
2018-07-31T06:40:02.066Z,99.90
2018-07-31T06:42:30.052Z,99.90
2018-07-31T06:44:58.392Z,99.90
2018-07-31T06:47:26.633Z,99.90
2018-07-31T06:52:22.608Z,99.90
2018-07-31T06:54:50.698Z,99.90
2018-07-31T06:57:18.857Z,99.90
2018-07-31T06:59:47.032Z,99.90
2018-07-31T07:02:15.115Z,99.90
2018-07-31T07:04:43.261Z,99.90
2018-07-31T07:07:11.456Z,99.90
2018-07-31T07:09:39.514Z,99.90
2018-07-31T07:12:07.810Z,99.90
2018-07-31T07:14:35.960Z,99.90
2018-07-31T07:17:04.169Z,99.90
2018-07-31T07:19:32.195Z,99.90
2018-07-31T07:26:56.022Z,99.90
2018-07-31T07:29:24.120Z,99.90
2018-07-31T07:31:52.264Z,99.90
2018-07-31T07:36:48.099Z,99.90
2018-07-31T07:41:42.611Z,99.90
2018-07-31T07:46:38.060Z,99.90
2018-07-31T07:49:05.542Z,99.90
2018-07-31T07:51:32.883Z,99.90
2018-07-31T07:54:00.241Z,99.90
2018-07-31T07:56:27.596Z,99.90
2018-07-31T07:58:55.140Z,99.90
2018-07-31T08:01:22.719Z,99.90
2018-07-31T08:03:50.120Z,99.90
2018-07-31T08:06:17.435Z,99.90
2018-07-31T08:08:45.489Z,99.90
2018-07-31T08:11:13.568Z,99.90
2018-07-31T08:13:41.748Z,99.90
2018-07-31T08:16:10.033Z,99.90
2018-07-31T08:18:38.219Z,99.90
2018-07-31T08:21:06.367Z,99.90
2018-07-31T08:23:34.441Z,99.90
2018-07-31T08:26:02.512Z,99.90
2018-07-31T08:28:30.704Z,99.90
2018-07-31T08:30:58.756Z,99.90
2018-07-31T08:33:27.018Z,99.90
2018-07-31T08:35:55.223Z,99.90
2018-07-31T08:38:23.302Z,99.30
2018-07-31T08:40:51.560Z,99.00
2018-07-31T08:45:47.649Z,99.80
2018-07-31T08:48:15.937Z,98.90
2018-07-31T08:50:44.078Z,98.60
2018-07-31T08:53:12.167Z,98.30
2018-07-31T08:55:40.486Z,98.40
2018-07-31T08:58:08.667Z,99.20
2018-07-31T09:00:36.780Z,98.90
2018-07-31T09:03:08.693Z,99.00
2018-07-31T09:05:36.743Z,98.30
2018-07-31T09:08:05.177Z,97.50
2018-07-31T09:10:33.194Z,97.90
2018-07-31T09:13:01.217Z,98.00
2018-07-31T09:15:29.330Z,97.60
2018-07-31T09:17:57.581Z,97.70
2018-07-31T09:20:25.897Z,97.80
2018-07-31T09:22:53.936Z,98.10
2018-07-31T09:25:22.123Z,97.80
2018-07-31T09:27:50.196Z,98.00
2018-07-31T09:30:18.294Z,97.50
2018-07-31T09:32:51.936Z,97.50
2018-07-31T09:35:20.168Z,98.20
2018-07-31T09:37:48.346Z,96.70
2018-07-31T09:40:16.401Z,96.40
2018-07-31T09:42:44.528Z,95.00
2018-07-31T09:45:12.744Z,96.30
2018-07-31T09:47:40.953Z,97.50
2018-07-31T09:50:09.084Z,96.90
2018-07-31T09:52:37.252Z,96.10
2018-07-31T09:57:33.413Z,96.90
2018-07-31T10:00:01.496Z,97.30
2018-07-31T10:02:29.565Z,96.30
2018-07-31T10:04:57.670Z,96.40
2018-07-31T10:07:25.701Z,96.40
2018-07-31T10:09:53.806Z,95.20
2018-07-31T10:12:21.849Z,95.10
2018-07-31T10:14:49.943Z,94.70
2018-07-31T10:17:17.987Z,94.70
2018-07-31T10:22:14.065Z,94.20
2018-07-31T10:24:42.324Z,94.20
2018-07-31T10:27:10.740Z,94.10
2018-07-31T10:29:38.751Z,93.20
2018-07-31T10:34:34.589Z,92.80
2018-07-31T10:39:30.748Z,92.80
2018-07-31T10:44:26.788Z,92.60
2018-07-31T10:49:22.655Z,93.40
2018-07-31T10:51:50.700Z,92.50
2018-07-31T10:56:47.068Z,92.70
2018-07-31T10:59:15.151Z,92.20
2018-07-31T11:01:43.217Z,92.40
2018-07-31T11:04:11.347Z,91.90
2018-07-31T11:06:39.600Z,92.00
2018-07-31T11:09:09.224Z,91.20
2018-07-31T11:11:37.233Z,91.50
2018-07-31T11:16:33.693Z,90.50
2018-07-31T11:19:01.889Z,89.80
2018-07-31T11:21:30.243Z,88.00
2018-07-31T11:28:54.293Z,89.10
2018-07-31T11:31:22.563Z,90.00
2018-07-31T11:33:50.649Z,86.90
2018-07-31T11:36:18.703Z,87.70
2018-07-31T11:38:46.800Z,86.90
2018-07-31T11:41:14.819Z,86.90
2018-07-31T11:46:10.767Z,85.10
2018-07-31T11:51:06.851Z,85.40
2018-07-31T11:53:34.892Z,84.50
2018-07-31T11:58:31.146Z,83.70
2018-07-31T12:00:59.296Z,83.80
2018-07-31T12:03:27.413Z,85.00
2018-07-31T12:05:55.619Z,80.60
2018-07-31T12:08:23.639Z,82.70
2018-07-31T12:10:51.905Z,79.70
2018-07-31T12:18:15.638Z,81.20
2018-07-31T12:20:43.655Z,80.60
2018-07-31T12:23:11.776Z,79.90
2018-07-31T12:25:40.186Z,78.90
2018-07-31T12:28:08.438Z,78.10
2018-07-31T12:30:36.542Z,79.60
2018-07-31T12:33:05.205Z,80.10
2018-07-31T12:35:41.635Z,78.10
2018-07-31T12:38:27.895Z,76.40
2018-07-31T12:40:55.960Z,79.00
2018-07-31T12:43:24.025Z,78.90
2018-07-31T12:45:52.072Z,76.00
2018-07-31T12:50:48.033Z,77.20
2018-07-31T12:53:16.484Z,77.10
2018-07-31T13:00:40.285Z,74.10
2018-07-31T13:05:36.484Z,74.80
2018-07-31T13:08:04.532Z,76.80
2018-07-31T13:10:32.639Z,72.90
2018-07-31T13:13:00.893Z,72.20
2018-07-31T13:15:28.981Z,72.10
2018-07-31T13:17:57.039Z,71.60
2018-07-31T13:20:25.249Z,72.50
2018-07-31T13:22:53.284Z,70.60
2018-07-31T13:25:21.484Z,72.80
2018-07-31T13:27:50.030Z,70.70
2018-07-31T13:30:18.261Z,69.40
2018-07-31T13:32:46.488Z,71.00
2018-07-31T13:35:14.598Z,70.80
2018-07-31T13:37:42.886Z,70.00
2018-07-31T13:40:10.935Z,69.70
2018-07-31T13:42:39.266Z,71.70
2018-07-31T13:45:07.479Z,68.30
2018-07-31T13:47:35.812Z,70.80
2018-07-31T13:50:04.064Z,67.50
2018-07-31T13:52:32.327Z,68.60
2018-07-31T13:55:00.641Z,67.40
2018-07-31T13:57:28.780Z,67.50
2018-07-31T13:59:56.977Z,69.60
2018-07-31T14:02:25.022Z,64.60
2018-07-31T14:04:53.196Z,65.50
2018-07-31T14:07:21.481Z,66.20
2018-07-31T14:09:49.768Z,66.10
2018-07-31T14:12:17.967Z,67.70
2018-07-31T14:14:46.256Z,64.30
2018-07-31T14:17:14.287Z,64.60
2018-07-31T14:19:42.375Z,64.40
2018-07-31T14:22:10.449Z,63.10
2018-07-31T14:24:38.616Z,63.00
2018-07-31T14:27:06.977Z,62.80
2018-07-31T14:29:35.068Z,65.10
2018-07-31T14:32:03.217Z,63.60
2018-07-31T14:36:59.301Z,61.60
2018-07-31T14:39:27.619Z,61.20
2018-07-31T14:41:55.665Z,60.20
2018-07-31T14:44:23.805Z,62.00
2018-07-31T14:46:52.099Z,63.40
2018-07-31T14:49:20.158Z,64.10
2018-07-31T14:51:48.335Z,61.60
2018-07-31T14:54:16.496Z,64.40
2018-07-31T14:59:12.554Z,62.40
2018-07-31T15:01:40.624Z,62.50
2018-07-31T15:04:08.922Z,61.30
2018-07-31T15:06:37.233Z,60.00
2018-07-31T15:09:07.931Z,59.70
2018-07-31T15:11:36.185Z,63.00
2018-07-31T15:14:04.580Z,61.30
2018-07-31T15:16:32.925Z,63.10
2018-07-31T15:19:01.032Z,59.90
2018-07-31T15:21:29.195Z,59.70
2018-07-31T15:26:25.152Z,62.00
2018-07-31T15:28:53.345Z,60.90
2018-07-31T15:31:21.407Z,62.40
2018-07-31T15:33:49.441Z,61.20
2018-07-31T15:38:45.672Z,65.00
2018-07-31T15:41:13.809Z,63.60
2018-07-31T15:43:41.847Z,61.00
2018-07-31T15:48:38.295Z,63.70
2018-07-31T15:53:34.703Z,64.40
2018-07-31T15:56:03.059Z,61.90
2018-07-31T15:58:31.161Z,61.60
2018-07-31T16:00:59.387Z,64.80
2018-07-31T16:05:55.497Z,63.60
2018-07-31T16:08:23.528Z,64.10
2018-07-31T16:10:51.576Z,64.20
2018-07-31T16:15:47.537Z,63.50
2018-07-31T16:18:15.630Z,63.80
2018-07-31T16:20:43.672Z,65.10
2018-07-31T16:23:11.991Z,63.40
2018-07-31T16:25:40.228Z,63.50
2018-07-31T16:30:36.292Z,62.00
2018-07-31T16:33:04.441Z,63.70
2018-07-31T16:38:01.288Z,65.20
2018-07-31T16:42:57.251Z,67.00
2018-07-31T16:45:28.278Z,68.70
2018-07-31T16:47:56.369Z,67.60
2018-07-31T16:52:52.377Z,64.70
2018-07-31T16:55:20.713Z,63.30
2018-07-31T16:57:48.795Z,60.70
2018-07-31T17:00:16.828Z,61.40
2018-07-31T17:05:12.789Z,59.50
2018-07-31T17:07:40.903Z,58.40
2018-07-31T17:10:09.050Z,58.80
2018-07-31T17:12:37.099Z,58.70
2018-07-31T17:17:33.568Z,57.50
2018-07-31T17:20:01.856Z,59.50
2018-07-31T17:22:29.916Z,59.70
2018-07-31T17:24:57.995Z,60.20
2018-07-31T17:27:26.064Z,61.40
2018-07-31T17:29:54.064Z,59.90
2018-07-31T17:32:22.095Z,59.80
2018-07-31T17:39:46.008Z,62.30
2018-07-31T17:42:14.104Z,61.40
2018-07-31T17:44:42.168Z,62.50
2018-07-31T17:47:10.252Z,64.60
2018-07-31T17:49:38.290Z,64.20
2018-07-31T17:54:50.632Z,64.90
2018-07-31T17:59:47.292Z,62.10
2018-07-31T18:02:15.508Z,67.80
2018-07-31T18:04:43.648Z,75.70
2018-07-31T18:07:12.111Z,78.00
2018-07-31T18:14:36.114Z,75.50
2018-07-31T18:17:04.275Z,74.80
2018-07-31T18:19:32.286Z,73.40
2018-07-31T18:22:00.491Z,78.00
2018-07-31T18:24:37.236Z,83.60
2018-07-31T18:27:08.200Z,85.30
2018-07-31T18:29:36.354Z,89.40
2018-07-31T18:32:04.659Z,90.90
2018-07-31T18:34:32.703Z,91.70
2018-07-31T18:37:00.805Z,92.20
2018-07-31T18:39:28.960Z,93.30
2018-07-31T18:41:56.998Z,93.80
2018-07-31T18:44:25.096Z,92.80
2018-07-31T18:46:53.305Z,93.90
2018-07-31T18:49:21.346Z,95.70
2018-07-31T18:51:49.450Z,96.50
2018-07-31T18:54:17.487Z,99.80
2018-07-31T18:59:13.429Z,99.90
2018-07-31T19:01:41.715Z,99.90
2018-07-31T19:04:09.688Z,99.90
2018-07-31T19:06:37.837Z,99.90
2018-07-31T19:09:10.108Z,99.90
2018-07-31T19:11:38.746Z,99.90
2018-07-31T19:14:06.825Z,99.90
2018-07-31T19:16:34.865Z,99.90
2018-07-31T19:19:02.969Z,99.90
2018-07-31T19:21:31.345Z,99.90
2018-07-31T19:23:59.538Z,99.90
2018-07-31T19:26:27.767Z,99.90
2018-07-31T19:31:24.048Z,99.90
2018-07-31T19:33:52.370Z,99.90
2018-07-31T19:38:56.804Z,99.90
2018-07-31T19:41:25.029Z,99.90
2018-07-31T19:43:54.036Z,99.90
2018-07-31T19:46:22.308Z,99.90
2018-07-31T19:48:49.678Z,99.90
2018-07-31T19:51:17.849Z,99.90
2018-07-31T19:53:46.237Z,99.90
2018-07-31T19:56:13.787Z,99.90
2018-07-31T19:58:41.160Z,99.90
2018-07-31T20:01:08.528Z,99.90
2018-07-31T20:03:35.942Z,99.90
2018-07-31T20:06:03.422Z,99.90
2018-07-31T20:08:30.936Z,99.90
2018-07-31T20:10:58.251Z,99.90
2018-07-31T20:13:25.596Z,99.90
2018-07-31T20:15:52.960Z,99.90
2018-07-31T20:18:20.267Z,99.90
2018-07-31T20:23:15.075Z,99.90
2018-07-31T20:30:36.804Z,99.90
2018-07-31T20:33:04.132Z,99.90
2018-07-31T20:35:31.569Z,99.90
2018-07-31T20:40:26.115Z,99.90
2018-07-31T20:42:53.745Z,99.90
2018-07-31T20:45:21.141Z,99.90
2018-07-31T20:47:48.560Z,99.90
2018-07-31T20:50:16.000Z,99.90
2018-07-31T20:52:43.272Z,99.90
2018-07-31T20:55:10.679Z,99.90
2018-07-31T20:57:37.989Z,99.90
2018-07-31T21:00:05.465Z,99.90
2018-07-31T21:02:32.797Z,99.90
2018-07-31T21:05:00.152Z,99.90
2018-07-31T21:09:54.818Z,99.90
2018-07-31T21:12:22.128Z,99.90
2018-07-31T21:14:49.901Z,99.90
2018-07-31T21:17:17.364Z,99.90
2018-07-31T21:19:44.747Z,99.90
2018-07-31T21:22:12.158Z,99.90
2018-07-31T21:27:06.783Z,99.90
2018-07-31T21:29:34.574Z,99.90
2018-07-31T21:32:13.801Z,99.90
2018-07-31T21:34:44.309Z,99.90
2018-07-31T21:37:29.614Z,99.90
2018-07-31T21:39:59.543Z,99.90
2018-07-31T21:42:28.769Z,99.90
2018-07-31T21:45:10.798Z,99.90
2018-07-31T21:50:17.372Z,99.90
2018-07-31T21:52:47.123Z,99.90
2018-07-31T21:55:18.761Z,99.90
2018-07-31T21:58:02.536Z,99.90
2018-07-31T22:00:37.106Z,99.90
2018-07-31T22:03:04.841Z,99.90
2018-07-31T22:05:32.147Z,99.90
2018-07-31T22:07:59.524Z,99.90
2018-07-31T22:10:26.863Z,99.90
2018-07-31T22:12:54.250Z,99.90
2018-07-31T22:15:21.781Z,99.90
2018-07-31T22:17:49.268Z,99.90
2018-07-31T22:20:16.697Z,99.90
2018-07-31T22:22:44.075Z,99.90
2018-07-31T22:25:11.461Z,99.90
2018-07-31T22:27:38.782Z,99.90
2018-07-31T22:30:06.179Z,99.90
2018-07-31T22:32:33.508Z,99.90
2018-07-31T22:35:01.056Z,99.90
2018-07-31T22:37:28.412Z,99.90
2018-07-31T22:39:55.890Z,99.90
2018-07-31T22:42:23.396Z,99.90
2018-07-31T22:44:50.717Z,99.90
2018-07-31T22:47:18.023Z,99.90
2018-07-31T22:52:12.442Z,99.90
2018-07-31T22:54:39.816Z,99.90
2018-07-31T22:57:07.295Z,99.90
2018-07-31T22:59:34.595Z,99.90
2018-07-31T23:04:29.231Z,99.90
2018-07-31T23:06:56.600Z,99.90
2018-07-31T23:09:24.035Z,99.90
2018-07-31T23:11:51.416Z,99.90
2018-07-31T23:14:18.750Z,99.90
2018-07-31T23:16:46.233Z,99.90
2018-07-31T23:19:13.550Z,99.90
2018-07-31T23:26:35.106Z,99.90
2018-07-31T23:31:29.617Z,99.90
2018-07-31T23:36:24.227Z,99.90
2018-07-31T23:41:18.671Z,99.90
2018-07-31T23:43:45.986Z,99.90
2018-07-31T23:48:40.390Z,99.90
2018-07-31T23:53:34.916Z,99.90
2018-07-31T23:56:02.283Z,99.90
2018-07-31T23:58:29.719Z,99.90
